Time;durP1;ratioP1;P1;durP2;ratioP2;P2;SDS_P1;SDS_P2;PMS_P1;PMS_P2;Temp;Humidity;BMP_temperature;BMP_pressure;BME280_temperature;BME280_humidity;BME280_pressure;Samples;Min_cycle;Max_cycle;Signal;HPM_P1;HPM_P2
2024/04/02 00:02:20;;;;;;;5.97;5.37;;;9.60;99.90;;;;;;5006695;28;20475;-71
2024/04/02 00:04:46;;;;;;;9.50;5.77;;;9.60;99.90;;;;;;5010560;28;20997;-71
2024/04/02 00:07:13;;;;;;;7.87;4.90;;;9.60;99.90;;;;;;5011507;28;20471;-71
2024/04/02 00:09:39;;;;;;;6.30;5.23;;;9.60;99.90;;;;;;5018736;28;20491;-70
2024/04/02 00:12:07;;;;;;;4.80;4.30;;;9.50;99.90;;;;;;5005789;28;20969;-71
2024/04/02 00:14:34;;;;;;;6.93;4.73;;;9.50;99.90;;;;;;5011951;28;20491;-71
2024/04/02 00:17:02;;;;;;;5.37;4.47;;;9.50;99.90;;;;;;5021433;28;20510;-71
2024/04/02 00:19:28;;;;;;;6.50;3.97;;;9.50;99.90;;;;;;5022474;28;20596;-70
2024/04/02 00:21:55;;;;;;;6.80;4.13;;;9.50;99.90;;;;;;5019417;28;20466;-71
2024/04/02 00:24:21;;;;;;;5.80;4.37;;;9.40;99.90;;;;;;5015577;28;20907;-71
2024/04/02 00:26:48;;;;;;;6.27;4.23;;;9.40;99.90;;;;;;5009683;28;20968;-71
2024/04/02 00:29:14;;;;;;;7.67;4.63;;;9.40;99.90;;;;;;5016562;28;21542;-71
2024/04/02 00:31:42;;;;;;;6.73;4.27;;;9.40;99.90;;;;;;5020780;28;20541;-71
2024/04/02 00:34:09;;;;;;;9.67;4.30;;;9.30;99.90;;;;;;5016825;28;20488;-71
2024/04/02 00:36:36;;;;;;;7.83;4.50;;;9.30;99.90;;;;;;5016722;28;20478;-71
2024/04/02 00:39:03;;;;;;;4.90;3.53;;;9.30;99.90;;;;;;4999057;28;20472;-71
2024/04/02 00:41:30;;;;;;;5.77;4.20;;;9.30;99.90;;;;;;5032825;28;20486;-70
2024/04/02 00:43:56;;;;;;;6.53;4.20;;;9.30;99.90;;;;;;5030995;28;20505;-71
2024/04/02 00:46:23;;;;;;;7.53;3.80;;;9.30;99.90;;;;;;5030100;28;20632;-70
2024/04/02 00:48:51;;;;;;;5.00;4.10;;;9.30;99.90;;;;;;5035496;28;20483;-70
2024/04/02 00:51:18;;;;;;;5.93;3.90;;;9.30;99.90;;;;;;5008446;28;20488;-70
2024/04/02 00:53:44;;;;;;;5.30;4.07;;;9.30;99.90;;;;;;5017506;28;20499;-71
2024/04/02 00:56:11;;;;;;;8.07;4.27;;;9.30;99.90;;;;;;5012077;28;20854;-71
2024/04/02 00:58:38;;;;;;;7.40;4.00;;;9.20;99.90;;;;;;5021854;28;20467;-71
2024/04/02 01:01:05;;;;;;;4.97;3.63;;;9.20;99.90;;;;;;5010188;28;21016;-71
2024/04/02 01:03:32;;;;;;;6.90;3.80;;;9.20;99.90;;;;;;5015434;28;20885;-71
2024/04/02 01:06:01;;;;;;;4.20;3.80;;;9.20;99.90;;;;;;5017278;28;20474;-71
2024/04/02 01:08:27;;;;;;;7.90;3.87;;;9.20;99.90;;;;;;5013780;28;20537;-71
2024/04/02 01:10:55;;;;;;;6.77;3.90;;;9.20;99.90;;;;;;5006729;28;20507;-71
2024/04/02 01:13:21;;;;;;;5.70;3.77;;;9.20;99.90;;;;;;5008510;28;20555;-70
2024/04/02 01:15:48;;;;;;;5.03;3.70;;;9.20;99.90;;;;;;5012084;28;20483;-71
2024/04/02 01:18:14;;;;;;;5.30;4.13;;;9.20;99.90;;;;;;5020001;28;20730;-71
2024/04/02 01:20:41;;;;;;;6.80;4.07;;;9.20;99.90;;;;;;5013468;28;20505;-70
2024/04/02 01:23:08;;;;;;;6.97;3.90;;;9.20;99.90;;;;;;5008914;28;20496;-71
2024/04/02 01:25:37;;;;;;;5.50;3.93;;;9.20;99.90;;;;;;5018375;28;21050;-71
2024/04/02 01:28:03;;;;;;;5.83;4.20;;;9.20;99.90;;;;;;5020832;28;20495;-71
2024/04/02 01:30:30;;;;;;;6.73;4.70;;;9.20;99.90;;;;;;5026750;28;20475;-70
2024/04/02 01:32:56;;;;;;;9.27;5.07;;;9.20;99.90;;;;;;5021162;28;20821;-70
2024/04/02 01:35:24;;;;;;;4.60;4.20;;;9.20;99.90;;;;;;5016456;28;20905;-70
2024/04/02 01:37:50;;;;;;;5.23;4.20;;;9.20;99.90;;;;;;5008798;28;20879;-71
2024/04/02 01:40:17;;;;;;;5.30;3.70;;;9.20;99.90;;;;;;5017139;28;20966;-70
2024/04/02 01:42:44;;;;;;;6.40;4.30;;;9.20;99.90;;;;;;5012487;28;20471;-70
2024/04/02 01:45:11;;;;;;;6.87;4.90;;;9.20;99.90;;;;;;5018100;28;20471;-71
2024/04/02 01:47:37;;;;;;;6.73;4.00;;;9.20;99.90;;;;;;5005940;28;20478;-71
2024/04/02 01:50:05;;;;;;;6.80;4.40;;;9.20;99.90;;;;;;5017096;28;20985;-70
2024/04/02 01:52:31;;;;;;;4.20;3.70;;;9.10;99.90;;;;;;5010435;28;21028;-70
2024/04/02 01:54:58;;;;;;;4.23;3.60;;;9.10;99.90;;;;;;5017017;28;20552;-70
2024/04/02 01:57:24;;;;;;;5.07;4.00;;;9.10;99.90;;;;;;5016885;28;20954;-70
2024/04/02 01:59:52;;;;;;;8.80;4.47;;;9.00;99.90;;;;;;5021363;28;20493;-70
2024/04/02 02:02:18;;;;;;;4.87;3.70;;;9.00;99.90;;;;;;5021057;28;20472;-73
2024/04/02 02:04:45;;;;;;;5.10;4.03;;;9.00;99.90;;;;;;5010708;28;20545;-73
2024/04/02 02:07:11;;;;;;;4.70;3.53;;;9.00;99.90;;;;;;5015043;28;20483;-73
2024/04/02 02:09:38;;;;;;;4.60;3.47;;;9.00;99.90;;;;;;5017222;28;20491;-72
2024/04/02 02:12:05;;;;;;;3.87;3.47;;;9.00;99.90;;;;;;5037053;28;20474;-73
2024/04/02 02:14:33;;;;;;;4.73;4.07;;;9.00;99.90;;;;;;5034107;28;20495;-73
2024/04/02 02:17:01;;;;;;;5.40;3.77;;;9.00;99.90;;;;;;5035961;28;20502;-72
2024/04/02 02:19:28;;;;;;;4.10;3.20;;;9.00;99.90;;;;;;5039386;28;20462;-72
2024/04/02 02:21:54;;;;;;;5.33;3.53;;;9.00;99.90;;;;;;5042173;28;20482;-73
2024/04/02 02:24:21;;;;;;;5.80;4.33;;;9.00;99.90;;;;;;5058784;28;20486;-72
2024/04/02 02:26:47;;;;;;;4.47;3.63;;;9.00;99.90;;;;;;5038577;28;20466;-73
2024/04/02 02:29:14;;;;;;;8.73;3.50;;;9.00;99.90;;;;;;5023751;28;20491;-72
2024/04/02 02:31:41;;;;;;;4.40;2.97;;;9.00;99.90;;;;;;5043926;28;20485;-72
2024/04/02 02:34:09;;;;;;;4.47;3.90;;;9.00;99.90;;;;;;5027301;28;20918;-73
2024/04/02 02:36:35;;;;;;;3.30;2.97;;;9.00;99.90;;;;;;5037240;28;20463;-72
2024/04/02 02:39:04;;;;;;;4.80;3.50;;;9.00;99.90;;;;;;5036420;28;20467;-72
2024/04/02 02:41:30;;;;;;;3.10;2.70;;;9.00;99.90;;;;;;5040356;28;21015;-72
2024/04/02 02:43:58;;;;;;;4.00;3.30;;;9.00;99.90;;;;;;5032855;28;20496;-73
2024/04/02 02:46:24;;;;;;;4.77;3.43;;;9.00;99.90;;;;;;5033449;28;20489;-73
2024/04/02 02:48:51;;;;;;;3.20;2.90;;;9.00;99.90;;;;;;5041493;28;21115;-72
2024/04/02 02:51:19;;;;;;;4.37;3.83;;;9.00;99.90;;;;;;5039981;28;20482;-72
2024/04/02 02:53:47;;;;;;;6.80;3.87;;;9.00;99.90;;;;;;5041975;28;20995;-73
2024/04/02 02:56:14;;;;;;;4.33;3.40;;;9.00;99.90;;;;;;5044642;28;20474;-73
2024/04/02 02:58:41;;;;;;;4.77;3.80;;;9.00;99.90;;;;;;5034351;28;21034;-73
2024/04/02 03:01:07;;;;;;;4.13;3.37;;;9.00;99.90;;;;;;5043686;28;21066;-72
2024/04/02 03:03:35;;;;;;;5.17;3.70;;;9.00;99.90;;;;;;5034525;28;20492;-73
2024/04/02 03:06:01;;;;;;;5.33;3.70;;;9.00;99.90;;;;;;5028689;28;20465;-73
2024/04/02 03:08:30;;;;;;;7.17;4.07;;;9.00;99.90;;;;;;5036544;28;20501;-72
2024/04/02 03:10:59;;;;;;;4.70;3.83;;;9.00;99.90;;;;;;5031783;28;20644;-72
2024/04/02 03:13:26;;;;;;;6.20;4.10;;;9.10;99.90;;;;;;5011776;28;20890;-72
2024/04/02 03:15:53;;;;;;;6.50;4.50;;;9.10;99.90;;;;;;5023089;28;20475;-73
2024/04/02 03:18:20;;;;;;;4.70;4.17;;;9.10;99.90;;;;;;5010683;28;20468;-73
2024/04/02 03:20:46;;;;;;;4.50;4.10;;;9.00;99.90;;;;;;5016505;28;20491;-72
2024/04/02 03:23:16;;;;;;;6.90;4.83;;;9.00;99.90;;;;;;5024682;28;20545;-72
2024/04/02 03:25:51;;;;;;;5.57;5.00;;;9.00;99.90;;;;;;5024622;28;20475;-73
2024/04/02 03:28:19;;;;;;;5.23;4.73;;;9.00;99.90;;;;;;5006875;28;20471;-72
2024/04/02 03:30:45;;;;;;;7.23;5.27;;;9.00;99.90;;;;;;5008183;28;20502;-72
2024/04/02 03:33:12;;;;;;;5.70;5.00;;;9.00;99.90;;;;;;5015384;28;20487;-72
2024/04/02 03:35:38;;;;;;;9.27;6.00;;;9.10;99.90;;;;;;5017291;28;20816;-72
2024/04/02 03:38:05;;;;;;;7.30;5.40;;;9.10;99.90;;;;;;5021169;28;20474;-73
2024/04/02 03:40:36;;;;;;;6.63;5.70;;;9.10;99.90;;;;;;5017376;28;20480;-72
2024/04/02 03:43:05;;;;;;;6.63;5.77;;;9.10;99.90;;;;;;5015542;28;20941;-72
2024/04/02 03:45:32;;;;;;;7.70;5.47;;;9.10;99.90;;;;;;5017243;28;21959;-72
2024/04/02 03:47:58;;;;;;;6.00;5.50;;;9.10;99.90;;;;;;5014509;28;21019;-72
2024/04/02 03:50:25;;;;;;;6.20;5.07;;;9.10;99.90;;;;;;5022898;28;20498;-72
2024/04/02 03:52:51;;;;;;;6.57;5.93;;;9.10;99.90;;;;;;5011776;28;20507;-72
2024/04/02 03:55:18;;;;;;;8.67;6.33;;;9.10;99.90;;;;;;5022759;28;20533;-72
2024/04/02 03:57:46;;;;;;;6.57;5.97;;;9.10;99.90;;;;;;5016963;28;20510;-72
2024/04/02 04:00:13;;;;;;;6.50;5.40;;;9.10;99.90;;;;;;5018093;28;20492;-72
2024/04/02 04:02:40;;;;;;;7.93;6.37;;;9.20;99.90;;;;;;5012140;28;20503;-72
2024/04/02 04:05:06;;;;;;;6.50;5.90;;;9.10;99.90;;;;;;5021193;28;20467;-73
2024/04/02 04:07:34;;;;;;;6.93;6.20;;;9.10;99.90;;;;;;5016484;28;20459;-72
2024/04/02 04:10:00;;;;;;;10.83;6.47;;;9.10;99.90;;;;;;5018970;28;20479;-72
2024/04/02 04:12:27;;;;;;;7.17;5.60;;;9.10;99.90;;;;;;5019371;28;20484;-73
2024/04/02 04:14:53;;;;;;;7.10;5.93;;;9.10;99.90;;;;;;5012498;28;20492;-72
2024/04/02 04:17:21;;;;;;;7.60;6.17;;;9.10;99.90;;;;;;5010688;28;20476;-72
2024/04/02 04:19:47;;;;;;;8.40;6.20;;;9.10;99.90;;;;;;5010842;28;20479;-72
2024/04/02 04:22:14;;;;;;;8.50;6.60;;;9.10;99.90;;;;;;5015511;28;20463;-72
2024/04/02 04:24:42;;;;;;;8.37;6.10;;;9.10;99.90;;;;;;5021642;28;21004;-72
2024/04/02 04:27:09;;;;;;;9.53;6.30;;;9.10;99.90;;;;;;5019655;28;20844;-73
2024/04/02 04:29:35;;;;;;;6.80;6.03;;;9.10;99.90;;;;;;5012125;28;20526;-71
2024/04/02 04:32:03;;;;;;;8.83;6.43;;;9.20;99.90;;;;;;5005469;28;20508;-71
2024/04/02 04:34:30;;;;;;;7.90;6.27;;;9.10;99.90;;;;;;5014672;28;20490;-72
2024/04/02 04:36:57;;;;;;;8.10;5.37;;;9.10;99.90;;;;;;5005976;28;20545;-72
2024/04/02 04:39:23;;;;;;;5.90;5.40;;;9.10;99.90;;;;;;5009682;28;20471;-71
2024/04/02 04:41:50;;;;;;;8.27;5.90;;;9.10;99.90;;;;;;5008841;28;20871;-71
2024/04/02 04:44:16;;;;;;;6.37;5.40;;;9.10;99.90;;;;;;5009098;28;20502;-71
2024/04/02 04:46:43;;;;;;;7.60;6.23;;;9.10;99.90;;;;;;5007489;28;20475;-72
2024/04/02 04:49:09;;;;;;;8.90;6.23;;;9.20;99.90;;;;;;5015601;28;20487;-72
2024/04/02 04:51:38;;;;;;;8.90;5.67;;;9.20;99.90;;;;;;5009155;28;20527;-72
2024/04/02 04:54:04;;;;;;;6.23;5.63;;;9.10;99.90;;;;;;5005573;28;20789;-72
2024/04/02 04:56:31;;;;;;;7.23;5.87;;;9.10;99.90;;;;;;5020432;28;20482;-72
2024/04/02 04:58:57;;;;;;;9.20;6.50;;;9.20;99.90;;;;;;5016202;28;20468;-72
2024/04/02 05:01:24;;;;;;;7.10;6.40;;;9.20;99.90;;;;;;5017183;28;20491;-72
2024/04/02 05:03:50;;;;;;;6.40;5.80;;;9.20;99.90;;;;;;5003066;28;20499;-72
2024/04/02 05:06:17;;;;;;;10.80;6.20;;;9.20;99.90;;;;;;5014146;28;20468;-72
2024/04/02 05:08:45;;;;;;;7.53;6.70;;;9.20;99.90;;;;;;5020103;28;20498;-71
2024/04/02 05:11:12;;;;;;;7.40;6.63;;;9.10;99.90;;;;;;5018730;28;20494;-72
2024/04/02 05:13:40;;;;;;;8.30;7.40;;;9.10;99.90;;;;;;4997161;28;20507;-72
2024/04/02 05:16:10;;;;;;;7.10;6.40;;;9.10;99.90;;;;;;5006746;28;20477;-72
2024/04/02 05:18:36;;;;;;;8.23;6.70;;;9.10;99.90;;;;;;5004251;28;20472;-72
2024/04/02 05:21:04;;;;;;;7.77;6.97;;;9.10;99.90;;;;;;5015398;28;20545;-72
2024/04/02 05:23:30;;;;;;;10.57;7.17;;;9.10;99.90;;;;;;5014405;28;20491;-71
2024/04/02 05:26:00;;;;;;;9.03;7.90;;;9.10;99.90;;;;;;5013892;28;20478;-72
2024/04/02 05:28:26;;;;;;;10.40;7.23;;;9.10;99.90;;;;;;5005161;28;20480;-72
2024/04/02 05:30:54;;;;;;;8.50;7.60;;;9.10;99.90;;;;;;5008410;28;20499;-72
2024/04/02 05:33:20;;;;;;;13.20;8.60;;;9.10;99.90;;;;;;5017262;28;20557;-71
2024/04/02 05:35:47;;;;;;;9.00;7.60;;;9.10;99.90;;;;;;5010617;28;20466;-71
2024/04/02 05:38:13;;;;;;;10.63;7.37;;;9.20;99.90;;;;;;5006136;28;21014;-72
2024/04/02 05:40:40;;;;;;;7.63;6.97;;;9.20;99.90;;;;;;5005911;28;20487;-72
2024/04/02 05:43:08;;;;;;;10.70;8.43;;;9.20;99.90;;;;;;5005106;28;20645;-72
2024/04/02 05:45:35;;;;;;;10.00;8.30;;;9.20;99.90;;;;;;5005991;28;20486;-71
2024/04/02 05:48:01;;;;;;;9.10;8.00;;;9.20;99.90;;;;;;5013082;28;20483;-71
2024/04/02 05:50:28;;;;;;;10.03;7.87;;;9.20;99.90;;;;;;5001911;28;20487;-72
2024/04/02 05:52:56;;;;;;;8.97;7.70;;;9.20;99.90;;;;;;5011491;28;20476;-72
2024/04/02 05:55:23;;;;;;;10.73;8.27;;;9.20;99.90;;;;;;5021461;28;20475;-71
2024/04/02 05:57:50;;;;;;;10.50;8.03;;;9.20;99.90;;;;;;5011609;28;20468;-72
2024/04/02 06:00:18;;;;;;;11.17;8.07;;;9.20;99.90;;;;;;5014300;28;20870;-72
2024/04/02 06:02:44;;;;;;;10.10;8.50;;;9.20;99.90;;;;;;5002902;28;24682;-71
2024/04/02 06:05:11;;;;;;;9.77;8.70;;;9.20;99.90;;;;;;5009794;28;20478;-71
2024/04/02 06:07:37;;;;;;;11.77;8.80;;;9.20;99.90;;;;;;5023110;28;20530;-71
2024/04/02 06:10:05;;;;;;;11.03;8.90;;;9.20;99.90;;;;;;5026621;28;20486;-72
2024/04/02 06:12:31;;;;;;;13.43;9.83;;;9.20;99.90;;;;;;5030336;28;20532;-71
2024/04/02 06:14:58;;;;;;;11.33;9.67;;;9.20;99.90;;;;;;5027174;28;20496;-71
2024/04/02 06:17:26;;;;;;;9.53;7.97;;;9.20;99.90;;;;;;5030688;28;20466;-71
2024/04/02 06:19:53;;;;;;;12.30;9.30;;;9.20;99.90;;;;;;5029916;28;20477;-70
2024/04/02 06:22:26;;;;;;;11.20;8.57;;;9.20;99.90;;;;;;5010696;28;20464;-71
2024/04/02 06:24:54;;;;;;;13.30;9.90;;;9.20;99.90;;;;;;5015788;28;20483;-71
2024/04/02 06:27:20;;;;;;;11.07;9.40;;;9.30;99.90;;;;;;5012963;28;20476;-71
2024/04/02 06:29:47;;;;;;;12.83;10.00;;;9.30;99.90;;;;;;5014348;28;20964;-70
2024/04/02 06:32:13;;;;;;;10.67;9.50;;;9.30;99.90;;;;;;5022764;28;20464;-71
2024/04/02 06:34:41;;;;;;;12.40;10.13;;;9.30;99.90;;;;;;5021042;28;20513;-71
2024/04/02 06:37:07;;;;;;;10.83;9.73;;;9.30;99.90;;;;;;5016515;28;20995;-71
2024/04/02 06:39:34;;;;;;;11.00;9.90;;;9.30;99.90;;;;;;5024175;28;20475;-71
2024/04/02 06:42:00;;;;;;;14.27;9.90;;;9.30;99.90;;;;;;5021075;28;20471;-71
2024/04/02 06:44:28;;;;;;;11.00;9.93;;;9.30;99.90;;;;;;5034357;28;20588;-71
2024/04/02 06:46:54;;;;;;;15.77;10.50;;;9.40;99.90;;;;;;5022773;28;20476;-72
2024/04/02 06:49:21;;;;;;;12.00;9.60;;;9.40;99.90;;;;;;5021311;28;20487;-71
2024/04/02 06:51:48;;;;;;;12.03;9.70;;;9.40;99.90;;;;;;5019047;28;20930;-71
2024/04/02 06:54:16;;;;;;;10.07;9.17;;;9.50;99.90;;;;;;5007313;28;20590;-70
2024/04/02 06:56:43;;;;;;;12.00;10.07;;;9.50;99.90;;;;;;5020403;28;20463;-71
2024/04/02 06:59:10;;;;;;;12.83;9.50;;;9.50;99.90;;;;;;5009988;28;20466;-71
2024/04/02 07:01:36;;;;;;;10.57;9.57;;;9.50;99.90;;;;;;5015234;28;20479;-71
2024/04/02 07:04:03;;;;;;;10.40;9.40;;;9.50;99.90;;;;;;5009945;28;20484;-71
2024/04/02 07:06:29;;;;;;;9.93;8.93;;;9.50;99.90;;;;;;5018972;28;21021;-71
2024/04/02 07:08:59;;;;;;;10.73;8.70;;;9.60;99.90;;;;;;5013527;28;20482;-71
2024/04/02 07:11:26;;;;;;;9.53;8.53;;;9.60;99.90;;;;;;5016137;28;21459;-71
2024/04/02 07:13:53;;;;;;;13.30;9.03;;;9.60;99.90;;;;;;5014326;28;20895;-72
2024/04/02 07:16:19;;;;;;;8.93;8.13;;;9.70;99.90;;;;;;5018853;28;20472;-71
2024/04/02 07:18:46;;;;;;;10.03;8.53;;;9.70;99.90;;;;;;5025525;28;20479;-71
2024/04/02 07:21:13;;;;;;;10.53;8.50;;;9.70;99.90;;;;;;5037133;28;20480;-71
2024/04/02 07:23:41;;;;;;;9.57;8.67;;;9.70;99.90;;;;;;5013562;28;20870;-71
2024/04/02 07:26:09;;;;;;;9.43;8.53;;;9.70;99.90;;;;;;5008773;28;20486;-71
2024/04/02 07:28:36;;;;;;;11.93;8.73;;;9.70;99.90;;;;;;5019529;28;21060;-72
2024/04/02 07:31:02;;;;;;;14.00;9.40;;;9.70;99.90;;;;;;5017554;28;20582;-72
2024/04/02 07:33:29;;;;;;;10.63;9.40;;;9.70;99.90;;;;;;5018764;28;20484;-71
2024/04/02 07:35:56;;;;;;;10.43;8.67;;;9.70;99.90;;;;;;5022656;28;20476;-72
2024/04/02 07:38:23;;;;;;;9.87;8.60;;;9.80;99.90;;;;;;5016914;28;20502;-71
2024/04/02 07:40:50;;;;;;;10.40;9.30;;;9.70;99.90;;;;;;5016347;28;20487;-72
2024/04/02 07:43:18;;;;;;;12.87;9.50;;;9.80;99.90;;;;;;5016892;28;20911;-72
2024/04/02 07:45:50;;;;;;;12.47;9.87;;;9.80;99.90;;;;;;5022575;28;20472;-71
2024/04/02 07:48:17;;;;;;;10.33;9.33;;;9.80;99.90;;;;;;5022458;28;20819;-71
2024/04/02 07:50:44;;;;;;;10.37;9.27;;;9.80;99.90;;;;;;5023088;28;20993;-71
2024/04/02 07:53:11;;;;;;;11.90;9.73;;;9.80;99.90;;;;;;5013426;28;20494;-72
2024/04/02 07:55:37;;;;;;;11.77;9.60;;;9.80;99.90;;;;;;5019799;28;20468;-71
2024/04/02 07:58:04;;;;;;;11.47;9.93;;;9.80;99.90;;;;;;5003189;28;20464;-71
2024/04/02 08:00:32;;;;;;;12.10;10.10;;;9.80;99.90;;;;;;5018921;28;21233;-71
2024/04/02 08:02:59;;;;;;;14.17;9.87;;;9.80;99.90;;;;;;5035375;28;20462;-70
2024/04/02 08:05:25;;;;;;;11.07;8.97;;;9.80;99.90;;;;;;5027357;28;20466;-71
2024/04/02 08:07:53;;;;;;;11.03;9.20;;;9.80;99.90;;;;;;5030066;28;20853;-70
2024/04/02 08:10:19;;;;;;;10.00;8.60;;;9.90;99.90;;;;;;5022708;28;20532;-70
2024/04/02 08:12:46;;;;;;;9.83;8.90;;;9.90;99.90;;;;;;5029568;28;20478;-70
2024/04/02 08:15:12;;;;;;;10.40;9.30;;;9.90;99.90;;;;;;5040175;28;20855;-70
2024/04/02 08:17:41;;;;;;;12.50;10.20;;;10.00;99.90;;;;;;5037019;28;20466;-71
2024/04/02 08:20:07;;;;;;;11.73;10.53;;;10.00;99.90;;;;;;5042048;28;20816;-70
2024/04/02 08:22:34;;;;;;;9.70;8.70;;;10.00;99.90;;;;;;5033945;28;20471;-70
2024/04/02 08:25:00;;;;;;;10.73;9.63;;;10.00;99.90;;;;;;5038249;28;20548;-70
2024/04/02 08:27:28;;;;;;;9.60;8.60;;;10.00;99.90;;;;;;5031804;28;20464;-71
2024/04/02 08:29:54;;;;;;;9.40;8.30;;;10.00;99.90;;;;;;5020870;28;20488;-70
2024/04/02 08:32:22;;;;;;;9.80;8.83;;;10.00;99.90;;;;;;5009174;28;20475;-70
2024/04/02 08:34:50;;;;;;;10.50;8.33;;;10.00;99.90;;;;;;5018347;28;20495;-70
2024/04/02 08:37:17;;;;;;;9.73;7.67;;;10.00;99.90;;;;;;5016493;28;20475;-70
2024/04/02 08:39:44;;;;;;;10.17;8.27;;;10.00;99.90;;;;;;5010838;28;20586;-70
2024/04/02 08:42:11;;;;;;;9.13;8.20;;;10.00;99.90;;;;;;5036026;28;20544;-70
2024/04/02 08:44:37;;;;;;;8.80;7.90;;;10.10;99.90;;;;;;5033937;28;20494;-70
2024/04/02 08:47:04;;;;;;;9.17;8.13;;;10.10;99.90;;;;;;5027687;28;20475;-70
2024/04/02 08:49:32;;;;;;;7.77;7.07;;;10.10;99.90;;;;;;5037150;28;20478;-71
2024/04/02 08:52:01;;;;;;;10.27;8.33;;;10.20;99.90;;;;;;5031634;28;20474;-70
2024/04/02 08:54:28;;;;;;;8.53;7.70;;;10.20;99.90;;;;;;5031558;28;20950;-70
2024/04/02 08:56:56;;;;;;;8.10;7.30;;;10.30;99.90;;;;;;5035755;28;20475;-71
2024/04/02 08:59:26;;;;;;;8.97;7.80;;;10.40;99.90;;;;;;5028561;28;20852;-70
2024/04/02 09:01:55;;;;;;;8.43;7.63;;;10.50;99.90;;;;;;5038224;28;20467;-70
2024/04/02 09:04:23;;;;;;;9.50;8.60;;;10.60;99.90;;;;;;5033056;28;20478;-70
2024/04/02 09:06:51;;;;;;;7.67;6.87;;;10.60;99.90;;;;;;5035646;28;20958;-71
2024/04/02 09:09:22;;;;;;;8.60;7.80;;;10.70;99.90;;;;;;5037304;28;20475;-71
2024/04/02 09:11:51;;;;;;;8.63;7.20;;;10.70;99.90;;;;;;5032879;28;20555;-70
2024/04/02 09:14:17;;;;;;;8.20;7.40;;;10.80;99.90;;;;;;5030212;28;20494;-70
2024/04/02 09:16:44;;;;;;;8.10;7.27;;;10.80;99.90;;;;;;5021793;28;20512;-70
2024/04/02 09:19:10;;;;;;;7.53;6.47;;;10.90;99.90;;;;;;5018921;28;20697;-71
2024/04/02 09:21:37;;;;;;;7.30;6.70;;;10.90;99.90;;;;;;5030944;28;20852;-71
2024/04/02 09:24:04;;;;;;;7.90;6.73;;;11.00;99.90;;;;;;5019271;28;20999;-71
2024/04/02 09:26:32;;;;;;;7.27;6.07;;;11.00;99.90;;;;;;5039351;28;20470;-71
2024/04/02 09:28:58;;;;;;;7.53;6.37;;;11.10;99.90;;;;;;5042574;28;20532;-71
2024/04/02 09:31:28;;;;;;;7.97;6.70;;;11.10;99.90;;;;;;5027341;28;20482;-71
2024/04/02 09:33:57;;;;;;;6.93;6.33;;;11.10;99.90;;;;;;5027470;28;20486;-71
2024/04/02 09:36:40;;;;;;;9.80;6.83;;;11.20;99.90;;;;;;5025928;28;20482;-71
2024/04/02 09:39:10;;;;;;;6.40;5.80;;;11.20;99.90;;;;;;5023847;28;20827;-71
2024/04/02 09:41:40;;;;;;;8.83;6.73;;;11.20;99.90;;;;;;5036377;28;20474;-70
2024/04/02 09:44:10;;;;;;;6.57;5.93;;;11.30;99.90;;;;;;5028267;28;21101;-71
2024/04/02 09:46:39;;;;;;;6.80;6.20;;;11.30;99.90;;;;;;5041902;28;20474;-71
2024/04/02 09:49:07;;;;;;;7.70;5.90;;;11.30;99.90;;;;;;5031413;28;20934;-71
2024/04/02 09:51:34;;;;;;;6.07;5.50;;;11.30;99.90;;;;;;5024985;28;20490;-70
2024/04/02 09:54:02;;;;;;;7.57;6.33;;;11.40;99.90;;;;;;5033615;28;20995;-70
2024/04/02 09:56:32;;;;;;;6.50;5.80;;;11.40;99.90;;;;;;5037108;28;21463;-71
2024/04/02 09:59:00;;;;;;;6.13;5.53;;;11.50;99.90;;;;;;5044218;28;20466;-71
2024/04/02 10:01:28;;;;;;;6.53;5.93;;;11.50;99.90;;;;;;5042536;28;20487;-71
2024/04/02 10:03:58;;;;;;;6.07;5.57;;;11.60;99.90;;;;;;5029847;28;20969;-69
2024/04/02 10:06:25;;;;;;;5.80;4.97;;;11.60;99.90;;;;;;5034958;28;20477;-71
2024/04/02 10:09:05;;;;;;;6.40;5.00;;;11.70;99.90;;;;;;5025834;28;20471;-71
2024/04/02 10:11:36;;;;;;;5.40;5.00;;;11.70;99.90;;;;;;5015181;28;20622;-71
2024/04/02 10:14:05;;;;;;;5.80;5.30;;;11.70;99.90;;;;;;5009927;28;20871;-71
2024/04/02 10:16:33;;;;;;;6.53;5.27;;;11.80;99.90;;;;;;5021232;28;20971;-71
2024/04/02 10:19:01;;;;;;;5.60;5.10;;;11.80;99.90;;;;;;5013111;28;20459;-71
2024/04/02 10:21:28;;;;;;;5.90;5.30;;;11.80;99.90;;;;;;5022581;28;21015;-71
2024/04/02 10:23:54;;;;;;;5.63;5.10;;;11.90;99.90;;;;;;5025463;28;20479;-71
2024/04/02 10:26:22;;;;;;;5.63;5.13;;;11.90;99.90;;;;;;5015937;28;20878;-72
2024/04/02 10:28:53;;;;;;;5.80;5.23;;;12.00;99.90;;;;;;5025341;28;20972;-71
2024/04/02 10:31:21;;;;;;;6.47;4.80;;;12.10;99.90;;;;;;5019333;28;20495;-71
2024/04/02 10:33:48;;;;;;;4.77;4.37;;;12.30;99.90;;;;;;5021104;28;20500;-71
2024/04/02 10:36:15;;;;;;;7.83;3.77;;;12.40;99.90;;;;;;5014857;28;20471;-71
2024/04/02 10:38:41;;;;;;;5.07;4.67;;;12.40;99.90;;;;;;5015657;28;20476;-70
2024/04/02 10:41:09;;;;;;;5.10;4.03;;;12.50;99.90;;;;;;5011967;28;20549;-71
2024/04/02 10:43:35;;;;;;;4.33;3.93;;;12.50;99.90;;;;;;5017599;28;20569;-70
2024/04/02 10:46:03;;;;;;;4.33;3.30;;;12.50;99.90;;;;;;5022558;28;20472;-71
2024/04/02 10:48:30;;;;;;;3.77;3.30;;;12.50;99.90;;;;;;5013533;28;20499;-70
2024/04/02 10:50:57;;;;;;;3.77;3.10;;;12.50;99.90;;;;;;5025359;28;20513;-70
2024/04/02 10:53:23;;;;;;;4.53;2.93;;;12.60;99.90;;;;;;5012704;28;21028;-71
2024/04/02 10:55:51;;;;;;;3.77;3.30;;;12.70;99.90;;;;;;5024300;28;20482;-71
2024/04/02 10:58:18;;;;;;;4.00;2.70;;;12.80;99.90;;;;;;5014155;28;20476;-70
2024/04/02 11:00:45;;;;;;;4.77;3.00;;;12.80;99.90;;;;;;5018266;28;20492;-70
2024/04/02 11:03:12;;;;;;;3.60;2.93;;;12.70;99.90;;;;;;5005275;28;20945;-70
2024/04/02 11:05:41;;;;;;;2.80;2.60;;;12.60;99.90;;;;;;5005932;28;20969;-70
2024/04/02 11:08:09;;;;;;;3.63;2.70;;;12.50;99.90;;;;;;5004490;28;21031;-70
2024/04/02 11:10:36;;;;;;;3.10;2.27;;;12.40;99.90;;;;;;5014913;28;20484;-70
2024/04/02 11:13:02;;;;;;;8.83;2.57;;;12.40;99.90;;;;;;5022502;28;20585;-72
2024/04/02 11:15:30;;;;;;;3.93;2.70;;;12.40;99.90;;;;;;5018803;28;20475;-71
2024/04/02 11:17:56;;;;;;;6.40;3.00;;;12.50;99.90;;;;;;5024829;28;20480;-70
2024/04/02 11:20:23;;;;;;;4.03;2.93;;;12.60;99.90;;;;;;5023262;28;21004;-70
2024/04/02 11:25:36;;;;;;;5.53;3.23;;;12.80;99.90;;;;;;5014198;28;20463;-72
2024/04/02 11:28:05;;;;;;;4.03;3.07;;;13.00;99.90;;;;;;5012300;28;20618;-69
2024/04/02 11:30:33;;;;;;;4.63;3.10;;;13.00;99.90;;;;;;5020696;28;21012;-71
2024/04/02 11:32:59;;;;;;;5.33;3.60;;;13.10;99.90;;;;;;5023956;28;20968;-71
2024/04/02 11:35:27;;;;;;;3.50;2.97;;;13.10;99.90;;;;;;5023021;28;20858;-70
2024/04/02 11:37:55;;;;;;;3.97;3.00;;;13.10;99.90;;;;;;5013235;28;20486;-71
2024/04/02 11:40:22;;;;;;;3.50;3.13;;;13.20;99.90;;;;;;5020952;28;20498;-70
2024/04/02 11:42:48;;;;;;;5.43;2.93;;;13.10;99.90;;;;;;5013643;28;20475;-71
2024/04/02 11:45:15;;;;;;;2.93;2.63;;;13.20;99.90;;;;;;5006792;28;20475;-71
2024/04/02 11:47:41;;;;;;;3.97;3.47;;;13.30;99.90;;;;;;5021994;28;20467;-71
2024/04/02 11:50:08;;;;;;;4.17;3.00;;;13.40;99.90;;;;;;5016537;28;20487;-70
2024/04/02 11:52:36;;;;;;;3.33;2.83;;;13.60;99.90;;;;;;5010951;28;20849;-70
2024/04/02 11:55:05;;;;;;;4.83;2.87;;;13.80;99.90;;;;;;5022080;28;20487;-70
2024/04/02 12:00:17;;;;;;;4.97;3.33;;;13.90;99.90;;;;;;5014885;28;21183;-64
2024/04/02 12:02:47;;;;;;;5.93;4.30;;;14.00;99.90;;;;;;5035736;28;20466;-64
2024/04/02 12:05:15;;;;;;;3.50;3.30;;;13.90;99.90;;;;;;5031209;28;20479;-64
2024/04/02 12:07:43;;;;;;;4.07;3.77;;;13.80;99.90;;;;;;5033827;28;20470;-64
2024/04/02 12:10:12;;;;;;;3.80;3.20;;;13.60;99.90;;;;;;5037321;28;20871;-63
2024/04/02 12:12:38;;;;;;;3.60;3.30;;;13.60;99.90;;;;;;5036225;28;20771;-64
2024/04/02 12:15:07;;;;;;;3.50;3.20;;;13.60;99.90;;;;;;5036594;28;21010;-65
2024/04/02 12:17:34;;;;;;;3.07;2.80;;;13.60;99.90;;;;;;5029612;28;20459;-64
2024/04/02 12:20:03;;;;;;;4.33;3.00;;;13.60;99.90;;;;;;5040281;28;20486;-66
2024/04/02 12:22:30;;;;;;;2.90;2.70;;;13.50;99.90;;;;;;5041253;28;20463;-64
2024/04/02 12:24:57;;;;;;;3.63;3.30;;;13.40;99.90;;;;;;5035215;28;20865;-64
2024/04/02 12:27:24;;;;;;;3.90;3.60;;;13.40;99.90;;;;;;5036706;28;20467;-65
2024/04/02 12:29:55;;;;;;;3.60;3.27;;;13.30;99.90;;;;;;5020033;28;20490;-64
2024/04/02 12:32:21;;;;;;;3.30;2.90;;;13.10;99.90;;;;;;5023216;28;20808;-64
2024/04/02 12:34:49;;;;;;;4.27;3.87;;;12.90;99.90;;;;;;5025907;28;20568;-64
2024/04/02 12:37:15;;;;;;;3.30;3.00;;;12.70;99.90;;;;;;5013330;28;20495;-64
2024/04/02 12:39:46;;;;;;;4.33;3.77;;;12.60;99.90;;;;;;5025517;28;20466;-64
2024/04/02 12:42:12;;;;;;;4.13;3.60;;;12.50;99.90;;;;;;5009458;28;20464;-64
2024/04/02 12:44:41;;;;;;;4.60;4.27;;;12.50;99.90;;;;;;5009372;28;21032;-63
2024/04/02 12:47:08;;;;;;;5.00;4.50;;;12.40;99.90;;;;;;5009530;28;20471;-63
2024/04/02 12:49:35;;;;;;;5.73;5.10;;;12.50;99.90;;;;;;5010221;28;20471;-63
2024/04/02 12:52:02;;;;;;;5.50;5.00;;;12.50;99.90;;;;;;5011619;28;20913;-64
2024/04/02 12:54:29;;;;;;;5.07;4.57;;;12.50;99.90;;;;;;5014668;28;20490;-64
2024/04/02 12:56:55;;;;;;;5.17;4.77;;;12.50;99.90;;;;;;5007380;28;20840;-65